Time;durP1;ratioP1;P1;durP2;ratioP2;P2;SDS_P1;SDS_P2;PMS_P1;PMS_P2;Temp;Humidity;BMP_temperature;BMP_pressure;BME280_temperature;BME280_humidity;BME280_pressure;Samples;Min_cycle;Max_cycle;Signal;HPM_P1;HPM_P2
2021/04/29 00:01:27;;;;;;;6.65;3.52;;;;;;;6.86;51.55;100817.09;1715617;83;21199;-72
2021/04/29 00:03:55;;;;;;;7.72;3.92;;;;;;;6.84;51.61;100823.73;1712950;83;21200;-73
2021/04/29 00:06:23;;;;;;;6.67;3.65;;;;;;;6.81;51.82;100825.20;1727518;83;21151;-72
2021/04/29 00:08:52;;;;;;;11.25;3.80;;;;;;;6.78;51.93;100818.83;1719218;83;21237;-72
2021/04/29 00:11:19;;;;;;;7.60;3.90;;;;;;;6.75;51.90;100820.79;1727153;83;21160;-72
2021/04/29 00:13:47;;;;;;;7.90;3.45;;;;;;;6.72;52.02;100820.95;1681689;83;21191;-72
2021/04/29 00:16:15;;;;;;;8.78;4.17;;;;;;;6.69;52.15;100823.27;1684130;83;21175;-73
2021/04/29 00:18:42;;;;;;;8.73;3.95;;;;;;;6.68;52.09;100821.13;1700125;83;21239;-74
2021/04/29 00:21:10;;;;;;;8.43;3.87;;;;;;;6.64;52.02;100823.55;1712097;83;21156;-72
2021/04/29 00:23:37;;;;;;;8.58;3.95;;;;;;;6.62;52.00;100825.42;1690007;84;21666;-74
2021/04/29 00:26:05;;;;;;;7.87;3.80;;;;;;;6.61;52.31;100825.50;1717040;83;21183;-73
2021/04/29 00:28:32;;;;;;;6.80;3.62;;;;;;;6.59;52.55;100822.97;1711761;83;21936;-72
2021/04/29 00:31:00;;;;;;;6.40;3.85;;;;;;;6.57;52.66;100817.44;1717182;82;21152;-73
2021/04/29 00:33:27;;;;;;;8.10;4.40;;;;;;;6.53;52.62;100826.39;1709947;83;21176;-72
2021/04/29 00:35:54;;;;;;;10.30;3.67;;;;;;;6.48;52.87;100830.56;1710790;83;21224;-72
2021/04/29 00:38:21;;;;;;;8.45;4.40;;;;;;;6.44;53.04;100822.49;1695792;83;21199;-73
2021/04/29 00:40:49;;;;;;;7.37;3.85;;;;;;;6.41;53.26;100818.77;1682417;83;22024;-73
2021/04/29 00:43:16;;;;;;;8.80;4.53;;;;;;;6.38;53.36;100824.16;1728677;83;21638;-74
2021/04/29 00:45:43;;;;;;;10.70;5.83;;;;;;;6.33;53.36;100825.24;1722877;83;21179;-73
2021/04/29 00:48:10;;;;;;;8.65;4.45;;;;;;;6.31;53.60;100821.05;1726335;81;21160;-72
2021/04/29 00:50:39;;;;;;;9.20;4.90;;;;;;;6.31;53.72;100821.88;1717659;83;21124;-73
2021/04/29 00:53:06;;;;;;;7.78;4.17;;;;;;;6.31;54.30;100818.43;1720108;83;21834;-72
2021/04/29 00:55:34;;;;;;;9.38;4.50;;;;;;;6.29;54.62;100811.98;1709597;83;21205;-72
2021/04/29 00:58:01;;;;;;;7.50;4.00;;;;;;;6.27;55.41;100815.15;1718061;83;21183;-73
2021/04/29 01:00:28;;;;;;;7.17;3.55;;;;;;;6.24;56.49;100814.48;1698492;84;21218;-74
2021/04/29 01:03:10;;;;;;;10.23;3.37;;;;;;;6.22;56.98;100817.17;1719692;83;21634;-72
2021/04/29 01:05:51;;;;;;;7.12;3.17;;;;;;;6.21;57.44;100812.86;1728592;83;21626;-73
2021/04/29 01:08:33;;;;;;;7.22;3.35;;;;;;;6.20;57.45;100809.86;1686498;83;21199;-73
2021/04/29 01:11:10;;;;;;;7.15;4.03;;;;;;;6.17;57.72;100806.58;1684425;84;21265;-74
2021/04/29 01:13:38;;;;;;;8.13;4.05;;;;;;;6.11;57.93;100808.59;1680243;83;21175;-73
2021/04/29 01:16:05;;;;;;;8.18;3.45;;;;;;;6.04;58.08;100807.25;1710647;83;21144;-74
2021/04/29 01:18:33;;;;;;;5.95;3.40;;;;;;;5.99;58.51;100812.36;1690228;83;21463;-74
2021/04/29 01:21:12;;;;;;;7.87;3.42;;;;;;;5.91;58.50;100807.50;1724759;83;21191;-71
2021/04/29 01:23:58;;;;;;;7.90;4.05;;;;;;;5.89;58.75;100810.20;1703961;83;21156;-73
2021/04/29 01:26:46;;;;;;;6.50;3.35;;;;;;;5.85;58.84;100810.43;1723298;83;21147;-75
2021/04/29 01:29:21;;;;;;;8.78;3.85;;;;;;;5.83;58.96;100809.20;1679285;83;21530;-73
2021/04/29 01:31:50;;;;;;;7.33;4.25;;;;;;;5.79;59.09;100808.17;1719861;83;21262;-73
2021/04/29 01:34:20;;;;;;;8.28;3.90;;;;;;;5.75;59.38;100808.80;1724320;83;21175;-72
2021/04/29 01:36:49;;;;;;;7.58;4.08;;;;;;;5.77;59.75;100809.08;1715388;83;21175;-72
2021/04/29 01:39:17;;;;;;;7.53;3.90;;;;;;;5.90;59.80;100811.03;1717302;83;21403;-73
2021/04/29 01:41:50;;;;;;;9.43;5.05;;;;;;;6.00;59.79;100812.72;1714810;83;21202;-72
2021/04/29 01:44:19;;;;;;;9.38;4.62;;;;;;;6.10;59.78;100812.16;1705648;83;21191;-72
2021/04/29 01:46:47;;;;;;;7.97;4.58;;;;;;;6.18;59.66;100813.50;1719349;83;21175;-73
2021/04/29 01:49:15;;;;;;;9.25;5.72;;;;;;;6.21;59.60;100817.25;1701500;83;21178;-73
2021/04/29 01:51:42;;;;;;;9.00;4.97;;;;;;;6.24;59.39;100816.63;1722165;83;21175;-73
2021/04/29 01:54:11;;;;;;;9.88;5.50;;;;;;;6.26;59.28;100812.62;1675411;83;21195;-73
2021/04/29 01:56:39;;;;;;;9.98;5.17;;;;;;;6.27;59.06;100812.53;1706898;83;21210;-72
2021/04/29 01:59:07;;;;;;;10.82;5.62;;;;;;;6.25;59.10;100813.06;1731146;81;21211;-74
2021/04/29 02:01:39;;;;;;;8.73;4.55;;;;;;;6.20;59.17;100816.86;1682079;84;21200;-73
2021/04/29 02:04:07;;;;;;;10.08;5.78;;;;;;;6.12;59.25;100814.69;1698374;83;21194;-73
2021/04/29 02:06:37;;;;;;;8.05;5.22;;;;;;;6.06;59.41;100821.06;1744607;81;21192;-73
2021/04/29 02:09:06;;;;;;;10.43;5.20;;;;;;;6.03;59.47;100822.53;1723095;83;21603;-73
2021/04/29 02:13:26;;;;;;;10.82;6.03;;;;;;;5.99;59.59;100821.03;1880380;76;22460;-70
2021/04/29 02:16:17;;;;;;;10.28;5.85;;;;;;;5.90;59.63;100819.73;1858776;77;21523;-70
2021/04/29 02:18:49;;;;;;;8.65;5.35;;;;;;;5.85;59.65;100819.57;1823632;77;22194;-69
2021/04/29 02:21:20;;;;;;;9.90;6.05;;;;;;;5.77;59.78;100832.58;1830726;77;21021;-69
2021/04/29 02:23:50;;;;;;;12.82;7.97;;;;;;;5.70;59.93;100827.31;1820117;78;21135;-70
2021/04/29 02:26:19;;;;;;;10.03;6.20;;;;;;;5.65;60.04;100828.02;1847635;75;21175;-69
2021/04/29 02:28:46;;;;;;;12.53;7.83;;;;;;;5.59;60.00;100831.77;1857894;76;21187;-69
2021/04/29 02:31:14;;;;;;;13.93;6.60;;;;;;;5.55;59.97;100830.73;1846979;77;21624;-69
2021/04/29 02:33:42;;;;;;;11.20;6.85;;;;;;;5.48;60.09;100833.25;1824786;77;21598;-69
2021/04/29 02:36:10;;;;;;;14.15;7.28;;;;;;;5.39;60.31;100831.49;1861220;76;21176;-69
2021/04/29 02:38:40;;;;;;;11.05;6.45;;;;;;;5.37;60.81;100833.81;1809873;78;21174;-69
2021/04/29 02:41:08;;;;;;;11.38;6.30;;;;;;;5.36;61.19;100838.64;1838750;77;21128;-69
2021/04/29 02:43:35;;;;;;;10.88;6.05;;;;;;;5.39;61.49;100843.23;1788062;79;21801;-69
2021/04/29 02:46:03;;;;;;;9.80;5.97;;;;;;;5.49;61.49;100831.87;1788103;80;21591;-70
2021/04/29 02:48:31;;;;;;;9.85;6.12;;;;;;;5.62;61.39;100827.34;1758278;80;21115;-69
2021/04/29 02:51:02;;;;;;;12.25;7.28;;;;;;;5.70;61.19;100832.97;1808503;78;21175;-69
2021/04/29 02:53:31;;;;;;;11.90;7.42;;;;;;;5.75;61.11;100832.30;1774780;80;21187;-70
2021/04/29 02:56:00;;;;;;;11.33;7.08;;;;;;;5.74;61.05;100829.30;1754840;79;21161;-70
2021/04/29 02:58:27;;;;;;;10.10;5.87;;;;;;;5.75;60.98;100833.61;1803393;78;21555;-70
2021/04/29 03:00:58;;;;;;;10.63;6.50;;;;;;;5.73;60.96;100828.46;1797009;78;21184;-70
2021/04/29 03:03:26;;;;;;;11.53;5.67;;;;;;;5.73;60.93;100828.46;1763684;78;21645;-64
2021/04/29 03:05:54;;;;;;;12.50;6.45;;;;;;;5.73;60.90;100830.20;1780076;79;21153;-70
2021/04/29 03:08:21;;;;;;;11.45;5.83;;;;;;;5.72;60.95;100831.98;1789320;78;21205;-70
2021/04/29 03:10:50;;;;;;;12.00;6.55;;;;;;;5.72;61.05;100835.06;1783768;80;21168;-66
2021/04/29 03:13:17;;;;;;;10.13;6.17;;;;;;;5.68;61.12;100825.25;1770156;80;21123;-67
2021/04/29 03:15:45;;;;;;;12.60;7.00;;;;;;;5.67;61.17;100826.16;1735665;82;21108;-67
2021/04/29 03:18:13;;;;;;;9.35;5.90;;;;;;;5.65;61.23;100825.84;1760374;80;21076;-67
2021/04/29 03:20:42;;;;;;;11.80;6.30;;;;;;;5.63;61.29;100834.23;1769369;80;21214;-66
2021/04/29 03:23:09;;;;;;;11.78;5.60;;;;;;;5.61;61.45;100825.64;1739266;80;21204;-66
2021/04/29 03:25:37;;;;;;;9.25;5.92;;;;;;;5.59;61.81;100836.16;1763474;80;21567;-68
2021/04/29 03:28:04;;;;;;;9.98;5.50;;;;;;;5.61;62.02;100831.70;1761981;80;21538;-66
2021/04/29 03:30:31;;;;;;;8.60;5.28;;;;;;;5.67;62.11;100837.08;1760195;80;21230;-67
2021/04/29 03:33:00;;;;;;;12.20;5.60;;;;;;;5.82;61.94;100838.05;1759710;80;21818;-66
2021/04/29 03:35:29;;;;;;;12.68;6.10;;;;;;;5.94;61.77;100836.08;1766921;80;21164;-66
2021/04/29 03:37:56;;;;;;;9.50;5.62;;;;;;;6.03;61.62;100834.77;1762235;80;21127;-68
2021/04/29 03:40:26;;;;;;;10.93;6.55;;;;;;;6.11;61.53;100843.03;1761194;80;21547;-66
2021/04/29 03:42:55;;;;;;;11.93;6.08;;;;;;;6.16;61.49;100843.63;1743854;80;21125;-66
2021/04/29 03:45:23;;;;;;;11.73;5.95;;;;;;;6.27;61.51;100835.19;1743039;80;21184;-67
2021/04/29 03:47:51;;;;;;;12.18;6.20;;;;;;;6.38;61.21;100835.92;1764468;80;21297;-65
2021/04/29 03:50:20;;;;;;;8.30;5.65;;;;;;;6.49;61.19;100840.94;1760967;80;21128;-66
2021/04/29 03:52:47;;;;;;;10.78;5.65;;;;;;;6.62;61.03;100837.63;1767688;80;21316;-67
2021/04/29 03:55:15;;;;;;;10.20;4.97;;;;;;;6.72;60.76;100836.65;1735461;80;21125;-67
2021/04/29 03:57:44;;;;;;;9.10;5.65;;;;;;;6.82;60.57;100838.64;1769153;80;21338;-67
2021/04/29 04:00:16;;;;;;;7.80;5.17;;;;;;;6.91;60.34;100832.06;1766396;80;21144;-66
2021/04/29 04:02:44;;;;;;;8.83;5.37;;;;;;;6.98;60.30;100839.93;1771451;80;21145;-67
2021/04/29 04:05:14;;;;;;;10.53;5.80;;;;;;;7.06;60.34;100838.16;1775615;80;21139;-68
2021/04/29 04:07:41;;;;;;;10.65;4.85;;;;;;;7.11;60.16;100837.45;1762620;80;21579;-65
2021/04/29 04:10:11;;;;;;;8.55;5.33;;;;;;;7.17;60.16;100832.31;1761061;80;21274;-66
2021/04/29 04:12:40;;;;;;;7.12;4.45;;;;;;;7.24;60.05;100836.25;1773489;80;21156;-66
2021/04/29 04:15:08;;;;;;;9.25;4.83;;;;;;;7.32;59.98;100834.50;1817514;77;21183;-66
2021/04/29 04:17:37;;;;;;;9.23;5.03;;;;;;;7.37;59.89;100831.98;1748843;80;21195;-66
2021/04/29 04:20:08;;;;;;;7.47;4.70;;;;;;;7.50;59.70;100837.78;1807258;77;21084;-66
2021/04/29 04:22:36;;;;;;;9.30;4.42;;;;;;;7.70;59.49;100837.89;1756523;80;21205;-65
2021/04/29 04:25:06;;;;;;;7.67;4.12;;;;;;;7.88;59.32;100832.84;1801755;77;21596;-65
2021/04/29 04:27:35;;;;;;;8.83;4.90;;;;;;;8.06;59.10;100836.11;1801512;77;21607;-65
2021/04/29 04:30:05;;;;;;;8.23;4.05;;;;;;;8.19;59.06;100833.57;1808768;77;21096;-65
2021/04/29 04:32:33;;;;;;;7.75;4.58;;;;;;;8.34;58.71;100836.53;1748174;80;21161;-65
2021/04/29 04:35:02;;;;;;;9.13;4.53;;;;;;;8.49;58.44;100836.50;1761032;79;22090;-65
2021/04/29 04:37:29;;;;;;;11.12;4.80;;;;;;;8.62;58.39;100838.71;1759508;79;21118;-66
2021/04/29 04:39:59;;;;;;;10.32;4.33;;;;;;;8.78;58.17;100835.12;1775138;79;21196;-65
2021/04/29 04:42:27;;;;;;;7.15;4.30;;;;;;;8.90;57.61;100838.24;1811929;77;21178;-64
2021/04/29 04:44:57;;;;;;;7.33;3.92;;;;;;;8.99;57.20;100832.38;1826010;77;21174;-65
2021/04/29 04:47:25;;;;;;;6.87;4.12;;;;;;;9.05;57.11;100834.60;1810939;77;21637;-70
2021/04/29 04:49:54;;;;;;;6.62;3.80;;;;;;;9.09;57.07;100834.78;1779972;79;21202;-69
2021/04/29 04:52:21;;;;;;;11.73;4.42;;;;;;;9.14;57.82;100836.25;1804148;77;21188;-70
2021/04/29 04:54:51;;;;;;;8.30;4.35;;;;;;;9.19;58.19;100842.03;1806933;78;21138;-68
2021/04/29 04:57:20;;;;;;;6.25;4.17;;;;;;;9.22;58.51;100837.89;1772399;78;21144;-68
2021/04/29 04:59:47;;;;;;;7.45;3.90;;;;;;;9.26;58.33;100839.35;1774013;78;21137;-69
2021/04/29 05:02:15;;;;;;;7.55;3.80;;;;;;;9.29;57.94;100843.92;1813266;78;21161;-67
2021/04/29 05:04:43;;;;;;;6.97;3.70;;;;;;;9.36;57.66;100845.66;1805462;77;21465;-64
2021/04/29 05:07:13;;;;;;;6.65;3.95;;;;;;;9.40;56.36;100842.38;1797941;78;21218;-67
2021/04/29 05:09:43;;;;;;;5.40;2.92;;;;;;;9.43;55.79;100843.02;1808401;78;21592;-65
2021/04/29 05:12:12;;;;;;;6.83;4.03;;;;;;;9.43;55.36;100846.95;1806923;78;21790;-66
2021/04/29 05:14:39;;;;;;;6.92;4.22;;;;;;;9.48;55.35;100847.48;1779848;78;21206;-63
2021/04/29 05:17:06;;;;;;;6.92;3.75;;;;;;;9.54;55.14;100838.81;1806292;78;21152;-64
2021/04/29 05:19:35;;;;;;;11.35;4.22;;;;;;;9.60;54.66;100840.55;1781846;80;21201;-68
2021/04/29 05:22:03;;;;;;;9.78;4.50;;;;;;;9.65;54.61;100842.38;1830078;77;21230;-66
2021/04/29 05:24:30;;;;;;;6.05;3.77;;;;;;;9.70;54.82;100842.07;1810818;77;21798;-65
2021/04/29 05:26:58;;;;;;;8.10;3.65;;;;;;;9.74;54.84;100844.84;1782107;77;21223;-63
2021/04/29 05:29:26;;;;;;;7.85;4.28;;;;;;;9.80;55.56;100833.91;1811523;77;21556;-66
2021/04/29 05:31:54;;;;;;;8.38;3.85;;;;;;;9.87;55.09;100840.90;1810814;78;21089;-71
2021/04/29 05:34:22;;;;;;;9.23;4.28;;;;;;;9.97;54.61;100846.33;1760404;80;21240;-66
2021/04/29 05:36:51;;;;;;;6.95;4.28;;;;;;;10.03;54.15;100843.28;1816576;78;21261;-66
2021/04/29 05:39:18;;;;;;;9.08;4.05;;;;;;;10.09;54.09;100838.08;1814656;78;21207;-66
2021/04/29 05:41:46;;;;;;;8.55;4.03;;;;;;;10.16;53.35;100842.78;1791938;78;21147;-65
2021/04/29 05:44:14;;;;;;;9.35;4.80;;;;;;;10.26;53.35;100846.08;1776520;78;21578;-65
2021/04/29 05:46:42;;;;;;;8.38;5.03;;;;;;;10.33;53.05;100845.55;1786133;79;21156;-65
2021/04/29 05:49:10;;;;;;;9.60;4.47;;;;;;;10.44;52.46;100841.30;1806111;78;21343;-64
2021/04/29 05:51:39;;;;;;;12.33;5.55;;;;;;;10.55;52.21;100844.84;1806475;77;21160;-64
2021/04/29 05:54:08;;;;;;;8.95;4.95;;;;;;;10.62;52.27;100843.91;1771063;78;21213;-73
2021/04/29 05:56:36;;;;;;;8.38;5.55;;;;;;;10.66;51.71;100846.70;1796818;78;21187;-71
2021/04/29 05:59:05;;;;;;;9.70;5.87;;;;;;;10.70;51.65;100845.52;1783570;78;21182;-70
2021/04/29 06:01:34;;;;;;;7.72;5.08;;;;;;;10.76;51.69;100845.56;1771678;78;21592;-71
2021/04/29 06:04:03;;;;;;;8.65;5.22;;;;;;;10.81;51.42;100845.20;1791077;78;21169;-74
2021/04/29 06:06:32;;;;;;;7.95;5.22;;;;;;;10.86;51.61;100844.38;1810195;78;21219;-69
2021/04/29 06:09:01;;;;;;;8.53;5.28;;;;;;;10.92;51.37;100852.66;1768798;80;21149;-76
2021/04/29 06:11:28;;;;;;;8.90;5.47;;;;;;;11.00;51.59;100844.21;1778561;77;21183;-77
2021/04/29 06:13:57;;;;;;;11.12;5.83;;;;;;;11.08;51.34;100841.02;1808692;78;22190;-73
2021/04/29 06:16:25;;;;;;;9.83;5.85;;;;;;;11.13;51.07;100838.88;1798213;78;21194;-70
2021/04/29 06:18:55;;;;;;;8.35;5.50;;;;;;;11.19;51.17;100837.08;1763110;79;21572;-62
2021/04/29 06:21:23;;;;;;;10.30;5.47;;;;;;;11.26;50.94;100840.09;1788692;78;21151;-74
2021/04/29 06:23:51;;;;;;;12.47;5.78;;;;;;;11.31;50.83;100832.22;1774105;80;21659;-73
2021/04/29 06:26:18;;;;;;;9.53;6.22;;;;;;;11.43;50.71;100838.80;1777955;80;21217;-77
2021/04/29 06:28:47;;;;;;;9.73;5.22;;;;;;;11.56;50.33;100842.67;1784932;79;21198;-75
2021/04/29 06:31:15;;;;;;;9.83;5.80;;;;;;;11.66;50.29;100842.31;1789674;79;21132;-74
2021/04/29 06:33:43;;;;;;;9.23;5.62;;;;;;;11.76;50.27;100838.00;1790680;79;21603;-75
2021/04/29 06:36:11;;;;;;;9.58;6.33;;;;;;;11.86;50.00;100834.17;1788482;79;21172;-72
2021/04/29 06:38:39;;;;;;;13.88;6.28;;;;;;;11.97;49.83;100840.80;1775408;79;21463;-73
2021/04/29 06:41:06;;;;;;;10.15;5.60;;;;;;;12.11;49.86;100849.44;1771962;79;21847;-71
2021/04/29 06:43:36;;;;;;;10.28;6.28;;;;;;;12.24;49.84;100844.37;1787749;78;21120;-75
2021/04/29 06:46:03;;;;;;;7.75;5.58;;;;;;;12.40;49.54;100854.52;1759368;79;21213;-75
2021/04/29 06:48:32;;;;;;;8.13;4.85;;;;;;;12.54;49.13;100855.22;1756051;79;21167;-78
2021/04/29 06:51:00;;;;;;;7.47;4.72;;;;;;;12.62;48.80;100856.75;1778984;79;21710;-80
2021/04/29 06:53:27;;;;;;;8.40;5.60;;;;;;;12.68;48.49;100856.27;1734036;79;21632;-76
2021/04/29 06:55:55;;;;;;;10.80;5.50;;;;;;;12.77;48.73;100859.45;1753789;79;21184;-76
2021/04/29 06:58:23;;;;;;;8.25;5.12;;;;;;;12.88;48.65;100859.06;1784068;79;21552;-76
2021/04/29 07:00:52;;;;;;;8.23;5.40;;;;;;;12.97;48.30;100849.90;1761911;79;21555;-77
2021/04/29 07:03:20;;;;;;;8.40;5.35;;;;;;;13.08;48.50;100850.81;1766687;79;21476;-76
2021/04/29 07:05:48;;;;;;;10.23;5.60;;;;;;;13.15;48.22;100842.75;1785421;79;21650;-79
2021/04/29 07:08:16;;;;;;;10.15;5.42;;;;;;;13.17;47.72;100839.00;1752897;80;21577;-74
2021/04/29 07:10:47;;;;;;;9.40;5.58;;;;;;;13.20;47.51;100840.06;1774061;80;21165;-76
2021/04/29 07:13:16;;;;;;;7.97;4.95;;;;;;;13.22;47.77;100836.47;1776220;80;21070;-79
2021/04/29 07:15:44;;;;;;;8.33;4.92;;;;;;;13.27;47.88;100836.42;1783649;80;21850;-75
2021/04/29 07:18:14;;;;;;;9.30;5.12;;;;;;;13.36;47.97;100842.30;1804248;77;21622;-76
2021/04/29 07:20:42;;;;;;;9.73;6.10;;;;;;;13.47;47.61;100840.55;1782672;80;21164;-75
2021/04/29 07:23:09;;;;;;;8.43;4.85;;;;;;;13.55;47.24;100833.64;1781845;80;21116;-77
2021/04/29 07:25:38;;;;;;;9.78;4.62;;;;;;;13.61;46.65;100831.44;1741990;81;21180;-74
2021/04/29 07:28:10;;;;;;;11.33;5.10;;;;;;;13.66;46.91;100829.23;1777749;79;21276;-75
2021/04/29 07:30:39;;;;;;;11.00;4.60;;;;;;;13.71;46.19;100824.38;1776499;80;21606;-72
2021/04/29 07:33:11;;;;;;;6.85;3.12;;;;;;;13.73;45.21;100831.23;1772752;80;21214;-68
2021/04/29 07:35:40;;;;;;;5.70;3.30;;;;;;;13.72;44.15;100831.36;1779590;79;21632;-77
2021/04/29 07:38:10;;;;;;;8.40;4.25;;;;;;;13.69;44.13;100828.97;1780709;78;21179;-75
2021/04/29 07:40:39;;;;;;;6.95;3.62;;;;;;;13.69;44.14;100828.97;1759938;80;22050;-73
2021/04/29 07:43:09;;;;;;;6.45;3.52;;;;;;;13.72;43.93;100828.71;1780867;79;21208;-70
2021/04/29 07:45:38;;;;;;;7.10;3.42;;;;;;;13.74;43.81;100823.63;1754597;80;21175;-72
2021/04/29 07:48:07;;;;;;;9.93;4.37;;;;;;;13.82;43.63;100821.66;1761025;80;21192;-77
2021/04/29 07:50:34;;;;;;;6.60;3.77;;;;;;;13.91;43.95;100819.52;1785284;79;21119;-71
2021/04/29 07:53:02;;;;;;;6.10;3.80;;;;;;;14.02;43.04;100823.03;1780818;79;21226;-72
2021/04/29 07:55:32;;;;;;;6.97;3.92;;;;;;;14.06;42.89;100816.02;1794699;78;21112;-67
2021/04/29 07:58:01;;;;;;;8.38;4.47;;;;;;;14.13;42.72;100810.52;1779943;79;21583;-70
2021/04/29 08:00:32;;;;;;;9.85;5.25;;;;;;;14.16;42.09;100800.66;1783498;80;21212;-75
2021/04/29 08:03:00;;;;;;;7.10;4.00;;;;;;;14.19;43.27;100811.81;1804135;77;21147;-70
2021/04/29 08:05:30;;;;;;;7.00;4.65;;;;;;;14.26;42.44;100812.11;1753918;80;21212;-72
2021/04/29 08:08:00;;;;;;;15.10;4.80;;;;;;;14.27;41.69;100802.70;1798887;77;21163;-73
2021/04/29 08:10:33;;;;;;;6.80;3.85;;;;;;;14.22;42.21;100803.60;1800187;78;22125;-73
2021/04/29 08:13:03;;;;;;;8.88;4.58;;;;;;;14.23;42.44;100812.38;1778004;78;21169;-75
2021/04/29 08:15:44;;;;;;;11.20;4.75;;;;;;;14.26;42.11;100793.08;1816843;78;21613;-68
2021/04/29 08:18:12;;;;;;;10.03;4.40;;;;;;;14.30;41.62;100794.47;1809010;78;21479;-67
2021/04/29 08:20:42;;;;;;;9.18;4.62;;;;;;;14.35;42.80;100798.03;1805121;78;21175;-68
2021/04/29 08:23:10;;;;;;;9.20;5.03;;;;;;;14.47;41.80;100790.80;1802204;78;21189;-73
2021/04/29 08:25:38;;;;;;;11.18;4.42;;;;;;;14.56;41.25;100796.60;1806400;78;21179;-72
2021/04/29 08:28:07;;;;;;;7.58;4.03;;;;;;;14.59;41.43;100783.59;1813277;78;21181;-70
2021/04/29 08:30:35;;;;;;;11.05;4.87;;;;;;;14.66;42.58;100792.17;1805162;78;22194;-69
2021/04/29 08:33:05;;;;;;;7.95;4.45;;;;;;;14.77;40.99;100791.19;1778127;78;21189;-68
2021/04/29 08:35:34;;;;;;;7.53;4.15;;;;;;;14.83;40.41;100785.83;1774040;78;21179;-74
2021/04/29 08:38:02;;;;;;;10.63;4.80;;;;;;;14.83;40.75;100781.36;1796961;78;21627;-75
2021/04/29 08:40:32;;;;;;;8.30;4.58;;;;;;;14.87;41.53;100777.94;1806439;78;21184;-70
2021/04/29 08:43:01;;;;;;;8.35;5.20;;;;;;;14.93;40.60;100780.03;1790346;78;21584;-70
2021/04/29 08:45:33;;;;;;;8.40;4.55;;;;;;;14.95;40.62;100778.07;1786257;80;21173;-74
2021/04/29 08:48:05;;;;;;;7.08;4.40;;;;;;;14.99;40.54;100778.12;1771602;78;21164;-70
2021/04/29 08:50:34;;;;;;;10.10;4.17;;;;;;;15.05;40.47;100766.96;1774476;80;21230;-71
2021/04/29 08:53:02;;;;;;;7.37;4.03;;;;;;;15.15;40.99;100766.94;1804050;78;21171;-72
2021/04/29 08:55:30;;;;;;;7.67;3.92;;;;;;;15.24;40.33;100759.94;1796132;79;21442;-67
2021/04/29 08:57:58;;;;;;;8.63;3.83;;;;;;;15.35;39.61;100765.08;1784901;78;21163;-70
2021/04/29 09:00:26;;;;;;;10.60;4.83;;;;;;;15.41;39.18;100767.12;1783577;79;21433;-67
2021/04/29 09:02:57;;;;;;;9.53;4.83;;;;;;;15.42;39.17;100760.86;1756511;81;21134;-69
2021/04/29 09:05:32;;;;;;;8.03;3.50;;;;;;;15.42;39.60;100758.20;1780092;79;21111;-67
2021/04/29 09:08:07;;;;;;;7.10;4.20;;;;;;;15.44;40.04;100755.91;1795474;79;21199;-76
2021/04/29 09:10:41;;;;;;;6.95;3.75;;;;;;;15.42;38.88;100751.58;1778647;79;21139;-63
2021/04/29 09:13:19;;;;;;;9.25;3.47;;;;;;;15.33;40.09;100749.81;1751699;79;21123;-71
2021/04/29 09:15:47;;;;;;;6.53;3.50;;;;;;;15.36;40.29;100742.04;1757682;79;21432;-71
2021/04/29 09:18:17;;;;;;;6.25;2.77;;;;;;;15.42;40.22;100738.31;1791380;79;21176;-71
2021/04/29 09:21:03;;;;;;;6.25;2.98;;;;;;;15.49;38.83;100737.24;1762013;78;21222;-62
2021/04/29 09:23:32;;;;;;;7.15;3.27;;;;;;;15.50;38.19;100731.44;1787037;78;21137;-66
2021/04/29 09:26:06;;;;;;;11.70;3.45;;;;;;;15.50;38.53;100732.77;1790943;79;21202;-65
2021/04/29 09:28:50;;;;;;;7.92;3.30;;;;;;;15.52;38.76;100721.55;1767345;79;21151;-64
2021/04/29 09:31:24;;;;;;;7.05;2.92;;;;;;;15.56;39.59;100722.41;1786763;79;21219;-71
2021/04/29 09:33:55;;;;;;;6.45;3.22;;;;;;;15.63;39.49;100712.05;1784618;79;21418;-68
2021/04/29 09:36:29;;;;;;;6.92;2.98;;;;;;;15.72;38.43;100716.98;1791433;79;21615;-69
2021/04/29 09:39:06;;;;;;;6.25;3.05;;;;;;;15.78;38.62;100707.11;1775001;80;21173;-72
2021/04/29 09:41:38;;;;;;;5.87;2.72;;;;;;;15.83;38.72;100705.34;1806050;78;21213;-68
2021/04/29 09:44:14;;;;;;;6.25;3.22;;;;;;;15.94;39.61;100695.35;1803949;78;21877;-73
2021/04/29 09:47:04;;;;;;;13.38;4.03;;;;;;;16.06;38.66;100702.60;1783256;80;21457;-71
2021/04/29 09:49:39;;;;;;;7.97;3.30;;;;;;;16.12;38.00;100687.87;1758053;80;21220;-72
2021/04/29 09:52:24;;;;;;;6.92;2.70;;;;;;;16.15;39.67;100694.22;1783310;79;21195;-67
2021/04/29 09:54:55;;;;;;;9.83;2.85;;;;;;;16.22;39.06;100687.30;1756703;80;21602;-67
2021/04/29 09:57:28;;;;;;;5.75;3.00;;;;;;;16.35;37.85;100682.95;1801201;78;21096;-74
2021/04/29 09:59:59;;;;;;;6.70;3.17;;;;;;;16.33;37.13;100684.42;1804739;78;21670;-72
2021/04/29 10:02:28;;;;;;;6.90;3.27;;;;;;;16.25;37.37;100674.23;1818516;78;21543;-68
2021/04/29 10:04:56;;;;;;;7.05;3.17;;;;;;;16.23;37.54;100681.02;1753308;80;21490;-72
2021/04/29 10:07:24;;;;;;;5.62;2.22;;;;;;;16.25;38.10;100670.25;1784636;78;21156;-68
2021/04/29 10:09:53;;;;;;;6.35;2.55;;;;;;;16.35;39.22;100668.34;1808505;77;21642;-68
2021/04/29 10:12:21;;;;;;;6.00;3.05;;;;;;;16.48;38.42;100664.80;1786432;78;21785;-65
2021/04/29 10:14:51;;;;;;;5.95;3.10;;;;;;;16.61;38.02;100665.73;1745545;80;21186;-70
2021/04/29 10:17:20;;;;;;;5.50;2.83;;;;;;;16.74;38.86;100664.47;1763565;78;21134;-71
2021/04/29 10:19:52;;;;;;;7.17;3.00;;;;;;;16.85;38.10;100658.44;1778269;78;21194;-73
2021/04/29 10:22:19;;;;;;;5.20;2.83;;;;;;;16.92;37.06;100659.14;1786990;79;21627;-71
2021/04/29 10:24:47;;;;;;;9.78;2.85;;;;;;;16.96;37.66;100648.02;1751671;79;21152;-63
2021/04/29 10:27:24;;;;;;;6.33;2.75;;;;;;;17.07;37.23;100647.75;1783948;78;21620;-67
2021/04/29 10:30:08;;;;;;;6.58;3.25;;;;;;;17.19;37.31;100648.30;1747741;81;21129;-67
2021/04/29 10:32:37;;;;;;;7.08;3.15;;;;;;;17.32;36.47;100635.07;1762269;79;21199;-67
2021/04/29 10:35:20;;;;;;;6.12;3.30;;;;;;;17.34;36.42;100638.40;1757296;79;21626;-68
2021/04/29 10:38:01;;;;;;;10.65;3.33;;;;;;;17.34;36.59;100637.06;1760927;79;21185;-72
2021/04/29 10:40:37;;;;;;;5.97;3.40;;;;;;;17.36;36.62;100628.42;1787183;79;21226;-67
2021/04/29 10:43:05;;;;;;;8.15;3.58;;;;;;;17.34;36.42;100625.09;1734779;81;21159;-69
2021/04/29 10:45:35;;;;;;;10.90;3.50;;;;;;;17.30;36.16;100621.08;1758118;79;21182;-74
2021/04/29 10:48:08;;;;;;;6.78;4.08;;;;;;;17.26;36.61;100624.09;1766141;80;21638;-73
2021/04/29 10:50:44;;;;;;;11.63;4.20;;;;;;;17.31;37.32;100614.27;1764109;79;21364;-72
2021/04/29 10:53:14;;;;;;;7.83;4.12;;;;;;;17.42;37.85;100625.95;1734574;80;21244;-68
2021/04/29 10:55:44;;;;;;;5.20;2.98;;;;;;;17.54;36.54;100615.02;1755320;80;21183;-73
2021/04/29 10:58:24;;;;;;;8.30;3.42;;;;;;;17.61;36.55;100622.17;1782894;78;21176;-71
2021/04/29 11:01:13;;;;;;;6.30;3.55;;;;;;;17.73;36.85;100601.91;1796837;78;27981;-71
2021/04/29 11:03:52;;;;;;;6.40;3.35;;;;;;;17.95;35.93;100611.93;1775423;79;21120;-71
2021/04/29 11:06:34;;;;;;;5.55;3.25;;;;;;;18.16;34.51;100610.63;1759688;81;21198;-71
2021/04/29 11:09:03;;;;;;;7.42;3.22;;;;;;;18.11;34.83;100600.98;1778259;78;21164;-72
2021/04/29 11:11:37;;;;;;;5.97;2.72;;;;;;;18.10;34.33;100597.45;1730840;80;21219;-72
2021/04/29 11:14:11;;;;;;;5.25;2.75;;;;;;;18.13;34.94;100604.30;1759636;80;21159;-73
2021/04/29 11:16:53;;;;;;;5.35;2.95;;;;;;;18.15;33.37;100603.11;1755185;80;21151;-72
2021/04/29 11:19:50;;;;;;;5.28;2.77;;;;;;;18.11;34.12;100604.97;1722703;83;21701;-73
2021/04/29 11:22:27;;;;;;;5.85;2.83;;;;;;;18.15;35.45;100598.30;1734669;80;21015;-72
2021/04/29 11:24:55;;;;;;;5.83;3.10;;;;;;;18.26;34.47;100599.81;1729203;80;21133;-73
2021/04/29 11:27:30;;;;;;;5.75;3.08;;;;;;;18.32;34.25;100597.27;1731077;81;21591;-72
2021/04/29 11:30:03;;;;;;;6.67;3.45;;;;;;;18.30;34.61;100599.28;1723041;81;21490;-73
2021/04/29 11:32:34;;;;;;;6.87;3.50;;;;;;;18.31;34.37;100600.13;1708280;82;21244;-71
2021/04/29 11:35:07;;;;;;;5.80;3.27;;;;;;;18.29;34.95;100593.64;1717694;83;21687;-72
2021/04/29 11:37:42;;;;;;;5.47;3.20;;;;;;;18.30;34.77;100595.28;1706285;83;21512;-72
2021/04/29 11:40:13;;;;;;;5.80;3.27;;;;;;;18.36;35.47;100593.80;1675430;83;21496;-72
2021/04/29 11:42:44;;;;;;;6.55;4.03;;;;;;;18.44;35.23;100581.80;1708512;82;21181;-72